Time;durP1;ratioP1;P1;durP2;ratioP2;P2;SDS_P1;SDS_P2;PMS_P1;PMS_P2;Temp;Humidity;BMP_temperature;BMP_pressure;BME280_temperature;BME280_humidity;BME280_pressure;Samples;Min_cycle;Max_cycle;Signal;HPM_P1;HPM_P2
2022/04/23 00:00:48;;;;;;;13.40;8.80;;;;;;;;;;4976429;28;20204;-61
2022/04/23 00:03:14;;;;;;;13.75;8.65;;;;;;;;;;4974552;28;20730;-62
2022/04/23 00:05:39;;;;;;;13.20;9.10;;;;;;;;;;4975171;28;20312;-61
2022/04/23 00:08:05;;;;;;;12.85;9.45;;;;;;;;;;4977647;28;20224;-61
2022/04/23 00:10:30;;;;;;;12.80;8.68;;;;;;;;;;4983480;28;20298;-61
2022/04/23 00:12:56;;;;;;;14.07;9.20;;;;;;;;;;4982955;28;21040;-61
2022/04/23 00:15:25;;;;;;;10.77;8.25;;;;;;;;;;4981552;28;20209;-62
2022/04/23 00:17:50;;;;;;;13.18;9.30;;;;;;;;;;4964905;28;20655;-62
2022/04/23 00:20:16;;;;;;;14.57;9.68;;;;;;;;;;4963768;28;20356;-61
2022/04/23 00:22:42;;;;;;;12.80;8.93;;;;;;;;;;4980605;28;20302;-61
2022/04/23 00:25:08;;;;;;;12.10;10.05;;;;;;;;;;4974604;28;20409;-61
2022/04/23 00:27:33;;;;;;;13.30;9.43;;;;;;;;;;4974981;28;20342;-61
2022/04/23 00:29:58;;;;;;;13.40;9.98;;;;;;;;;;4975001;28;20213;-61
2022/04/23 00:32:24;;;;;;;12.90;10.07;;;;;;;;;;4966781;28;20229;-61
2022/04/23 00:34:49;;;;;;;14.57;10.48;;;;;;;;;;4981587;28;20209;-61
2022/04/23 00:37:14;;;;;;;15.82;10.85;;;;;;;;;;4981804;28;20598;-61
2022/04/23 00:39:39;;;;;;;13.88;11.48;;;;;;;;;;4983256;28;20213;-61
2022/04/23 00:42:08;;;;;;;13.75;10.88;;;;;;;;;;4982700;28;20213;-61
2022/04/23 00:44:34;;;;;;;17.02;11.73;;;;;;;;;;4984582;28;20307;-60
2022/04/23 00:46:59;;;;;;;16.42;12.43;;;;;;;;;;4972929;28;20677;-61
2022/04/23 00:49:24;;;;;;;17.77;12.52;;;;;;;;;;4958504;28;20312;-61
2022/04/23 00:51:50;;;;;;;17.77;13.38;;;;;;;;;;4959176;28;20229;-61
2022/04/23 00:54:16;;;;;;;17.90;13.95;;;;;;;;;;4983776;28;20324;-61
2022/04/23 00:56:41;;;;;;;17.92;13.70;;;;;;;;;;4986223;28;20275;-61
2022/04/23 00:59:07;;;;;;;16.33;13.55;;;;;;;;;;4966758;28;20229;-61
2022/04/23 01:01:32;;;;;;;16.50;13.35;;;;;;;;;;4967004;28;20209;-61
2022/04/23 01:03:57;;;;;;;16.55;13.23;;;;;;;;;;4985877;28;20221;-61
2022/04/23 01:06:24;;;;;;;18.20;14.07;;;;;;;;;;4986188;28;20221;-61
2022/04/23 01:08:50;;;;;;;18.40;14.52;;;;;;;;;;4981452;28;20669;-61
2022/04/23 01:11:15;;;;;;;18.75;14.45;;;;;;;;;;4976675;28;20248;-61
2022/04/23 01:13:43;;;;;;;16.90;14.35;;;;;;;;;;4978534;28;20717;-61
2022/04/23 01:16:08;;;;;;;20.52;15.32;;;;;;;;;;4976432;28;20297;-61
2022/04/23 01:18:34;;;;;;;18.38;15.32;;;;;;;;;;4965580;28;20300;-61
2022/04/23 01:20:59;;;;;;;19.00;14.80;;;;;;;;;;4967299;28;20241;-61
2022/04/23 01:23:24;;;;;;;20.98;15.68;;;;;;;;;;4966210;28;20672;-61
2022/04/23 01:25:52;;;;;;;19.80;14.73;;;;;;;;;;4966244;28;20339;-61
2022/04/23 01:28:19;;;;;;;22.25;15.45;;;;;;;;;;4985384;28;20221;-61
2022/04/23 01:30:44;;;;;;;19.92;15.73;;;;;;;;;;4981815;28;20213;-61
2022/04/23 01:33:09;;;;;;;19.50;16.60;;;;;;;;;;4974919;28;20485;-61
2022/04/23 01:35:35;;;;;;;21.15;17.45;;;;;;;;;;4977457;28;20252;-61
2022/04/23 01:38:00;;;;;;;22.30;17.38;;;;;;;;;;4978776;28;20777;-61
2022/04/23 01:40:25;;;;;;;18.75;16.45;;;;;;;;;;4984446;28;20212;-61
2022/04/23 01:42:50;;;;;;;20.85;16.73;;;;;;;;;;4985886;28;20217;-61
2022/04/23 01:45:16;;;;;;;20.90;16.83;;;;;;;;;;4985123;28;20217;-61
2022/04/23 01:47:41;;;;;;;22.20;17.88;;;;;;;;;;4984701;28;20295;-61
2022/04/23 01:50:07;;;;;;;23.65;17.80;;;;;;;;;;4985104;28;20248;-61
2022/04/23 01:52:33;;;;;;;23.02;16.65;;;;;;;;;;4985481;28;20692;-61
2022/04/23 01:54:58;;;;;;;23.42;17.85;;;;;;;;;;4977939;28;20296;-61
2022/04/23 01:57:23;;;;;;;21.92;17.38;;;;;;;;;;4971376;28;20597;-60
2022/04/23 01:59:49;;;;;;;20.20;17.23;;;;;;;;;;4958672;28;20331;-61
2022/04/23 02:02:14;;;;;;;23.08;18.38;;;;;;;;;;4962463;28;20214;-61
2022/04/23 02:04:39;;;;;;;23.13;18.42;;;;;;;;;;4966471;28;20700;-60
2022/04/23 02:07:04;;;;;;;24.00;18.92;;;;;;;;;;4965522;28;20214;-60
2022/04/23 02:09:30;;;;;;;21.48;18.27;;;;;;;;;;4965693;28;20606;-61
2022/04/23 02:11:56;;;;;;;24.15;19.13;;;;;;;;;;4965701;28;20272;-61
2022/04/23 02:14:22;;;;;;;24.10;18.73;;;;;;;;;;4983571;28;20624;-60
2022/04/23 02:16:47;;;;;;;23.42;18.58;;;;;;;;;;4969948;28;20228;-60
2022/04/23 02:19:13;;;;;;;22.48;19.58;;;;;;;;;;4957194;28;20217;-61
2022/04/23 02:21:38;;;;;;;23.75;18.33;;;;;;;;;;4957232;28;20213;-61
2022/04/23 02:24:04;;;;;;;21.52;19.08;;;;;;;;;;4961126;28;20644;-61
2022/04/23 02:26:29;;;;;;;25.40;19.80;;;;;;;;;;4965789;28;20264;-60
2022/04/23 02:28:54;;;;;;;25.05;19.00;;;;;;;;;;4983624;28;20220;-60
2022/04/23 02:31:20;;;;;;;24.98;19.25;;;;;;;;;;4977354;28;20527;-61
2022/04/23 02:33:45;;;;;;;22.38;19.25;;;;;;;;;;4965453;28;20773;-60
2022/04/23 02:36:11;;;;;;;23.55;19.70;;;;;;;;;;4964383;28;20221;-61
2022/04/23 02:38:39;;;;;;;22.35;18.77;;;;;;;;;;4982912;28;20267;-61
2022/04/23 02:41:06;;;;;;;24.33;19.42;;;;;;;;;;4974983;28;20276;-61
2022/04/23 02:43:31;;;;;;;26.75;20.83;;;;;;;;;;4975885;28;20205;-60
2022/04/23 02:45:56;;;;;;;22.40;18.33;;;;;;;;;;4977519;28;20220;-60
2022/04/23 02:48:21;;;;;;;24.15;20.48;;;;;;;;;;4983725;28;20288;-60
2022/04/23 02:50:47;;;;;;;24.08;20.27;;;;;;;;;;4983475;28;20209;-61
2022/04/23 02:53:13;;;;;;;27.38;20.00;;;;;;;;;;4983612;28;20239;-61
2022/04/23 02:55:38;;;;;;;24.60;21.63;;;;;;;;;;4984175;28;20280;-61
2022/04/23 02:58:05;;;;;;;23.80;20.15;;;;;;;;;;4973010;28;20209;-61
2022/04/23 03:00:30;;;;;;;22.95;19.88;;;;;;;;;;4980003;28;20587;-60
2022/04/23 03:02:55;;;;;;;23.90;20.40;;;;;;;;;;4955403;28;20257;-60
2022/04/23 03:05:21;;;;;;;24.75;21.85;;;;;;;;;;4955995;28;20224;-61
2022/04/23 03:07:47;;;;;;;24.17;20.77;;;;;;;;;;4957468;28;20297;-61
2022/04/23 03:10:12;;;;;;;25.45;21.45;;;;;;;;;;4962315;28;20249;-60
2022/04/23 03:12:38;;;;;;;24.50;21.10;;;;;;;;;;4964346;28;20256;-61
2022/04/23 03:15:04;;;;;;;25.25;21.10;;;;;;;;;;4964377;28;20244;-61
2022/04/23 03:17:30;;;;;;;25.40;21.00;;;;;;;;;;4966101;28;20214;-61
2022/04/23 03:19:56;;;;;;;26.77;21.60;;;;;;;;;;4964760;28;20629;-60
2022/04/23 03:22:21;;;;;;;25.52;21.10;;;;;;;;;;4964405;28;20245;-61
2022/04/23 03:24:47;;;;;;;26.65;21.42;;;;;;;;;;4960752;28;20320;-61
2022/04/23 03:27:12;;;;;;;26.38;21.75;;;;;;;;;;4956111;28;21058;-61
2022/04/23 03:29:37;;;;;;;26.45;22.42;;;;;;;;;;4956693;28;20210;-60
2022/04/23 03:32:03;;;;;;;26.63;22.17;;;;;;;;;;4965424;28;20690;-61
2022/04/23 03:34:28;;;;;;;25.17;21.67;;;;;;;;;;4964076;28;20229;-60
2022/04/23 03:36:54;;;;;;;27.25;21.92;;;;;;;;;;4964402;28;20619;-61
2022/04/23 03:39:20;;;;;;;26.02;22.10;;;;;;;;;;4963555;28;20222;-60
2022/04/23 03:41:45;;;;;;;26.02;21.95;;;;;;;;;;4981473;28;20699;-60
2022/04/23 03:44:10;;;;;;;25.70;22.40;;;;;;;;;;4983272;28;20229;-60
2022/04/23 03:46:35;;;;;;;25.95;23.15;;;;;;;;;;4981492;28;20208;-59
2022/04/23 03:49:01;;;;;;;27.45;22.77;;;;;;;;;;4974188;28;20699;-60
2022/04/23 03:51:26;;;;;;;25.70;22.05;;;;;;;;;;4975069;28;20221;-60
2022/04/23 03:53:51;;;;;;;26.80;23.40;;;;;;;;;;4975604;28;20513;-60
2022/04/23 03:56:17;;;;;;;25.40;22.27;;;;;;;;;;4982961;28;20233;-60
2022/04/23 03:58:42;;;;;;;26.52;22.70;;;;;;;;;;4968195;28;20691;-60
2022/04/23 04:01:07;;;;;;;27.63;23.58;;;;;;;;;;4963566;28;20218;-60
2022/04/23 04:03:33;;;;;;;27.08;23.65;;;;;;;;;;4963748;28;20221;-60
2022/04/23 04:05:59;;;;;;;26.20;22.98;;;;;;;;;;4981421;28;20371;-60
2022/04/23 04:08:24;;;;;;;25.63;22.88;;;;;;;;;;4981957;28;20209;-61
2022/04/23 04:10:50;;;;;;;26.70;23.10;;;;;;;;;;4977108;28;20740;-60
2022/04/23 04:13:15;;;;;;;25.75;22.73;;;;;;;;;;4975038;28;20391;-60
2022/04/23 04:15:43;;;;;;;24.92;21.70;;;;;;;;;;4973131;28;20987;-60
2022/04/23 04:18:08;;;;;;;27.33;22.65;;;;;;;;;;4978638;28;20251;-61
2022/04/23 04:20:34;;;;;;;26.38;22.17;;;;;;;;;;4986918;28;20241;-60
2022/04/23 04:23:00;;;;;;;24.75;21.77;;;;;;;;;;4986398;28;20311;-60
2022/04/23 04:25:25;;;;;;;26.00;23.13;;;;;;;;;;4984934;28;20205;-61
2022/04/23 04:27:50;;;;;;;24.33;21.63;;;;;;;;;;4986393;28;20625;-60
2022/04/23 04:30:15;;;;;;;24.73;20.50;;;;;;;;;;4986616;28;20225;-60
2022/04/23 04:32:41;;;;;;;25.95;21.55;;;;;;;;;;4965471;28;20731;-60
2022/04/23 04:35:07;;;;;;;26.30;22.10;;;;;;;;;;4977523;28;20198;-61
2022/04/23 04:37:33;;;;;;;25.25;22.05;;;;;;;;;;4959784;28;20353;-60
2022/04/23 04:39:58;;;;;;;25.17;21.98;;;;;;;;;;4979638;28;20808;-60
2022/04/23 04:42:23;;;;;;;27.33;22.95;;;;;;;;;;4985540;28;20217;-60
2022/04/23 04:44:49;;;;;;;27.73;22.67;;;;;;;;;;4986833;28;20209;-60
2022/04/23 04:47:15;;;;;;;24.90;22.20;;;;;;;;;;4986248;28;20224;-61
2022/04/23 04:49:40;;;;;;;26.15;21.90;;;;;;;;;;4985734;28;20773;-60
2022/04/23 04:52:06;;;;;;;24.35;21.45;;;;;;;;;;4984630;28;20672;-60
2022/04/23 04:54:31;;;;;;;25.00;20.90;;;;;;;;;;4986664;28;20225;-60
2022/04/23 04:56:56;;;;;;;26.38;22.23;;;;;;;;;;4994329;28;20305;-60
2022/04/23 04:59:22;;;;;;;28.08;21.90;;;;;;;;;;4995523;28;20232;-61
2022/04/23 05:01:47;;;;;;;24.20;21.60;;;;;;;;;;4995667;28;20296;-60
2022/04/23 05:04:12;;;;;;;25.88;23.23;;;;;;;;;;4992610;28;20417;-62
2022/04/23 05:06:38;;;;;;;24.10;21.50;;;;;;;;;;4995731;28;20217;-61
2022/04/23 05:09:03;;;;;;;51.92;41.08;;;;;;;;;;5010656;28;20208;-61
2022/04/23 05:11:28;;;;;;;27.35;22.17;;;;;;;;;;5010316;28;20316;-62
2022/04/23 05:13:54;;;;;;;24.85;20.48;;;;;;;;;;4995049;28;20684;-63
2022/04/23 05:16:19;;;;;;;26.17;23.07;;;;;;;;;;4994345;28;20429;-62
2022/04/23 05:18:44;;;;;;;23.52;21.02;;;;;;;;;;5009972;28;20220;-61
2022/04/23 05:21:10;;;;;;;24.13;21.17;;;;;;;;;;4995129;28;20955;-62
2022/04/23 05:23:35;;;;;;;24.13;21.60;;;;;;;;;;4994638;28;20424;-60
2022/04/23 05:26:01;;;;;;;23.10;19.27;;;;;;;;;;4994665;28;20292;-62
2022/04/23 05:28:27;;;;;;;22.52;20.15;;;;;;;;;;4994707;28;20602;-61
2022/04/23 05:30:52;;;;;;;25.30;22.70;;;;;;;;;;4994400;28;20428;-61
2022/04/23 05:33:17;;;;;;;22.33;19.92;;;;;;;;;;4994279;28;20284;-61
2022/04/23 05:35:43;;;;;;;21.92;19.60;;;;;;;;;;4993834;28;20233;-61
2022/04/23 05:38:08;;;;;;;23.30;20.20;;;;;;;;;;4994594;28;20583;-62
2022/04/23 05:40:33;;;;;;;22.02;19.65;;;;;;;;;;4994611;28;20544;-61
2022/04/23 05:42:59;;;;;;;20.50;18.30;;;;;;;;;;4994565;28;20201;-61
2022/04/23 05:45:24;;;;;;;23.90;20.42;;;;;;;;;;4993999;28;20213;-60
2022/04/23 05:47:49;;;;;;;24.23;19.35;;;;;;;;;;4995147;28;20208;-61
2022/04/23 05:50:15;;;;;;;21.70;18.83;;;;;;;;;;4994548;28;20582;-61
2022/04/23 05:52:40;;;;;;;20.30;18.08;;;;;;;;;;4994290;28;20574;-60
2022/04/23 05:55:06;;;;;;;21.50;19.20;;;;;;;;;;4994719;28;20260;-60
2022/04/23 05:57:31;;;;;;;20.33;18.13;;;;;;;;;;4994424;28;20263;-60
2022/04/23 05:59:57;;;;;;;35.72;29.95;;;;;;;;;;4993884;28;20236;-63
2022/04/23 06:02:22;;;;;;;23.67;20.00;;;;;;;;;;4994357;28;20217;-60
2022/04/23 06:04:49;;;;;;;21.52;17.63;;;;;;;;;;4994690;28;20568;-60
2022/04/23 06:07:14;;;;;;;21.08;16.42;;;;;;;;;;4993183;28;20228;-61
2022/04/23 06:09:40;;;;;;;20.98;16.70;;;;;;;;;;4994835;28;20209;-62
2022/04/23 06:12:05;;;;;;;20.30;17.45;;;;;;;;;;4994193;28;20244;-62
2022/04/23 06:14:30;;;;;;;17.77;15.88;;;;;;;;;;4993696;28;20244;-61
2022/04/23 06:16:56;;;;;;;19.88;16.40;;;;;;;;;;4994722;28;20233;-60
2022/04/23 06:19:21;;;;;;;18.17;16.25;;;;;;;;;;4994329;28;20264;-61
2022/04/23 06:21:46;;;;;;;18.13;16.20;;;;;;;;;;4993471;28;20220;-61
2022/04/23 06:24:11;;;;;;;18.83;16.83;;;;;;;;;;4994115;28;20267;-60
2022/04/23 06:26:38;;;;;;;18.65;16.63;;;;;;;;;;4994618;28;20227;-60
2022/04/23 06:29:03;;;;;;;19.08;16.90;;;;;;;;;;4993175;28;20213;-61
2022/04/23 06:31:28;;;;;;;18.25;16.05;;;;;;;;;;4994435;28;20268;-61
2022/04/23 06:33:53;;;;;;;21.55;16.42;;;;;;;;;;4993726;28;20320;-61
2022/04/23 06:36:19;;;;;;;18.02;15.98;;;;;;;;;;4992538;28;20715;-60
2022/04/23 06:38:44;;;;;;;18.88;16.70;;;;;;;;;;4993515;28;20209;-61
2022/04/23 06:41:09;;;;;;;19.35;15.45;;;;;;;;;;4992553;28;20296;-61
2022/04/23 06:43:35;;;;;;;18.50;15.95;;;;;;;;;;4993751;28;20256;-61
2022/04/23 06:46:00;;;;;;;17.48;14.52;;;;;;;;;;4994143;28;20205;-61
2022/04/23 06:48:25;;;;;;;20.38;16.02;;;;;;;;;;4993995;28;20237;-61
2022/04/23 06:50:50;;;;;;;18.13;16.23;;;;;;;;;;4993269;28;20563;-60
2022/04/23 06:53:16;;;;;;;19.80;16.35;;;;;;;;;;4993243;28;20224;-60
2022/04/23 06:55:41;;;;;;;24.70;20.45;;;;;;;;;;4992975;28;20213;-60
2022/04/23 06:58:06;;;;;;;21.05;16.15;;;;;;;;;;4993219;28;20220;-59
2022/04/23 07:00:31;;;;;;;17.13;15.32;;;;;;;;;;4987076;28;20292;-60
2022/04/23 07:02:57;;;;;;;16.75;14.73;;;;;;;;;;4992585;28;20664;-61
2022/04/23 07:05:22;;;;;;;16.38;14.48;;;;;;;;;;4993060;28;20213;-60
2022/04/23 07:07:55;;;;;;;18.23;15.02;;;;;;;;;;4993289;28;20231;-60
2022/04/23 07:10:20;;;;;;;16.15;14.45;;;;;;;;;;4992355;28;20677;-61
2022/04/23 07:12:45;;;;;;;16.98;13.98;;;;;;;;;;4993282;28;20228;-62
2022/04/23 07:15:11;;;;;;;17.90;16.00;;;;;;;;;;4992663;28;20224;-59
2022/04/23 07:17:36;;;;;;;17.35;15.43;;;;;;;;;;4992695;28;20209;-62
2022/04/23 07:20:01;;;;;;;16.63;14.80;;;;;;;;;;4993169;28;20211;-63
2022/04/23 07:22:27;;;;;;;16.70;14.90;;;;;;;;;;4993564;28;20213;-62
2022/04/23 07:24:53;;;;;;;17.35;14.32;;;;;;;;;;4992528;28;20575;-62
2022/04/23 07:27:18;;;;;;;20.73;17.67;;;;;;;;;;4992924;28;20268;-61
2022/04/23 07:29:44;;;;;;;18.95;15.70;;;;;;;;;;4993071;28;20213;-63
2022/04/23 07:32:09;;;;;;;19.35;16.25;;;;;;;;;;4990642;28;20228;-64
2022/04/23 07:37:31;;;;;;;17.63;15.13;;;;;;;;;;4992073;28;20208;-62
2022/04/23 07:40:10;;;;;;;17.90;14.85;;;;;;;;;;4991407;28;20216;-62
2022/04/23 07:42:35;;;;;;;18.60;16.60;;;;;;;;;;4992584;28;20424;-62
2022/04/23 07:45:01;;;;;;;17.15;15.20;;;;;;;;;;4991608;28;20213;-63
2022/04/23 07:47:28;;;;;;;17.00;15.10;;;;;;;;;;4993068;28;20217;-62
2022/04/23 07:49:53;;;;;;;23.35;15.75;;;;;;;;;;4992613;28;20212;-63
2022/04/23 07:52:19;;;;;;;18.00;15.50;;;;;;;;;;4991511;28;20221;-63
2022/04/23 07:54:44;;;;;;;18.20;16.25;;;;;;;;;;4992776;28;20225;-61
2022/04/23 07:57:10;;;;;;;16.85;15.05;;;;;;;;;;4992642;28;20236;-61
2022/04/23 07:59:38;;;;;;;20.15;16.35;;;;;;;;;;4992135;28;20283;-61
2022/04/23 08:02:03;;;;;;;52.90;43.03;;;;;;;;;;4992690;28;20215;-60
2022/04/23 08:04:29;;;;;;;16.33;14.35;;;;;;;;;;4992969;28;20209;-60
2022/04/23 08:06:54;;;;;;;21.13;16.33;;;;;;;;;;4991353;28;20299;-60
2022/04/23 08:09:19;;;;;;;20.02;15.93;;;;;;;;;;4992342;28;20309;-62
2022/04/23 08:11:44;;;;;;;19.00;16.98;;;;;;;;;;4991193;28;20738;-62
2022/04/23 08:14:10;;;;;;;22.45;18.08;;;;;;;;;;4990872;28;20232;-63
2022/04/23 08:16:35;;;;;;;21.63;18.15;;;;;;;;;;4992743;28;20209;-61
2022/04/23 08:19:01;;;;;;;20.95;18.00;;;;;;;;;;4992431;28;20210;-64
2022/04/23 08:21:26;;;;;;;20.48;17.90;;;;;;;;;;5005781;28;20217;-66
2022/04/23 08:23:51;;;;;;;22.85;18.42;;;;;;;;;;4992040;28;20213;-63
2022/04/23 08:26:16;;;;;;;23.13;19.60;;;;;;;;;;4992142;28;20276;-63
2022/04/23 08:31:26;;;;;;;24.05;19.58;;;;;;;;;;4992423;28;20224;-61
2022/04/23 08:33:58;;;;;;;21.88;17.65;;;;;;;;;;4992579;28;20220;-60
2022/04/23 08:36:23;;;;;;;22.63;17.33;;;;;;;;;;4992057;28;20207;-64
2022/04/23 08:38:49;;;;;;;19.13;17.10;;;;;;;;;;4992929;28;20331;-63
2022/04/23 08:41:14;;;;;;;19.77;17.67;;;;;;;;;;4990070;28;20359;-65
2022/04/23 08:43:41;;;;;;;18.52;16.42;;;;;;;;;;4991750;28;20205;-64
2022/04/23 08:46:07;;;;;;;19.77;16.58;;;;;;;;;;4991956;28;20228;-62
2022/04/23 08:48:34;;;;;;;20.23;16.98;;;;;;;;;;4991770;28;20205;-62
2022/04/23 08:50:59;;;;;;;22.27;17.85;;;;;;;;;;5007408;28;20275;-62
2022/04/23 08:53:26;;;;;;;21.13;17.30;;;;;;;;;;5007358;28;20681;-64
2022/04/23 08:55:52;;;;;;;21.13;17.92;;;;;;;;;;4990858;28;20299;-65
2022/04/23 08:58:17;;;;;;;23.17;19.35;;;;;;;;;;4992082;28;20623;-65
2022/04/23 09:00:42;;;;;;;22.65;16.98;;;;;;;;;;4992643;28;20211;-65
2022/04/23 09:03:14;;;;;;;20.40;17.15;;;;;;;;;;4991229;28;20209;-66
2022/04/23 09:05:39;;;;;;;21.80;18.70;;;;;;;;;;4995398;28;20220;-65
2022/04/23 09:08:05;;;;;;;22.17;19.30;;;;;;;;;;4995540;28;20292;-66
2022/04/23 09:10:44;;;;;;;20.52;18.33;;;;;;;;;;4993719;28;20707;-65
2022/04/23 09:13:10;;;;;;;23.70;18.27;;;;;;;;;;4995672;28;20300;-64
2022/04/23 09:24:09;;;;;;;25.35;19.67;;;;;;;;;;4994100;28;20268;-65
2022/04/23 09:26:34;;;;;;;22.88;18.10;;;;;;;;;;4995027;28;20629;-65
2022/04/23 09:29:00;;;;;;;23.58;19.05;;;;;;;;;;4995965;28;20742;-66
2022/04/23 09:31:26;;;;;;;24.05;19.10;;;;;;;;;;4992861;28;20224;-64
2022/04/23 09:33:52;;;;;;;26.70;19.40;;;;;;;;;;4994913;28;20217;-63
2022/04/23 09:36:18;;;;;;;22.88;18.60;;;;;;;;;;4994588;28;20235;-63
2022/04/23 09:38:43;;;;;;;23.50;18.45;;;;;;;;;;4993156;28;20304;-63
2022/04/23 09:41:16;;;;;;;24.38;18.80;;;;;;;;;;4994355;28;20220;-63
2022/04/23 09:43:41;;;;;;;23.77;19.38;;;;;;;;;;4992849;28;20259;-63
2022/04/23 09:46:08;;;;;;;23.52;18.30;;;;;;;;;;4993816;28;20296;-63
2022/04/23 09:48:34;;;;;;;21.85;17.80;;;;;;;;;;4994722;28;20216;-63
2022/04/23 09:51:00;;;;;;;23.00;18.67;;;;;;;;;;4995845;28;20595;-62
2022/04/23 09:53:27;;;;;;;22.17;18.48;;;;;;;;;;5009480;28;20236;-61
2022/04/23 09:55:53;;;;;;;23.58;18.85;;;;;;;;;;4995188;28;20244;-62
2022/04/23 09:58:19;;;;;;;21.85;18.75;;;;;;;;;;4994395;28;20209;-65
2022/04/23 10:00:44;;;;;;;21.45;18.63;;;;;;;;;;4994261;28;20213;-61
2022/04/23 10:03:10;;;;;;;21.33;17.58;;;;;;;;;;4993308;28;20232;-63
2022/04/23 10:05:38;;;;;;;22.67;18.05;;;;;;;;;;4993840;28;20212;-63
2022/04/23 10:08:04;;;;;;;21.05;18.58;;;;;;;;;;4994971;28;20260;-62
2022/04/23 10:10:30;;;;;;;24.52;18.98;;;;;;;;;;4994588;28;20213;-62
2022/04/23 10:12:56;;;;;;;21.58;17.27;;;;;;;;;;4993750;28;20283;-63
2022/04/23 10:15:21;;;;;;;23.58;18.80;;;;;;;;;;4992878;28;20217;-63
2022/04/23 10:17:48;;;;;;;23.17;18.50;;;;;;;;;;4994786;28;20201;-63
2022/04/23 10:20:13;;;;;;;22.33;18.55;;;;;;;;;;4993203;28;20217;-63
2022/04/23 10:22:45;;;;;;;22.08;17.52;;;;;;;;;;4994537;28;20271;-62
2022/04/23 10:25:13;;;;;;;21.77;18.30;;;;;;;;;;4992957;28;20220;-62
2022/04/23 10:27:39;;;;;;;24.30;18.80;;;;;;;;;;4992067;28;20206;-62
2022/04/23 10:30:06;;;;;;;23.48;18.75;;;;;;;;;;4994121;28;20224;-63
2022/04/23 10:32:39;;;;;;;22.38;18.67;;;;;;;;;;4994259;28;20209;-62
2022/04/23 10:35:16;;;;;;;24.02;19.33;;;;;;;;;;4992976;28;20227;-63
2022/04/23 10:37:42;;;;;;;24.45;20.33;;;;;;;;;;4994151;28;20240;-63
2022/04/23 10:40:15;;;;;;;24.48;20.63;;;;;;;;;;4993868;28;20581;-62
2022/04/23 10:43:01;;;;;;;26.20;20.55;;;;;;;;;;4993255;28;20213;-64
2022/04/23 10:45:34;;;;;;;23.10;20.48;;;;;;;;;;4993696;28;20212;-62
2022/04/23 10:48:18;;;;;;;24.58;19.58;;;;;;;;;;4992048;28;20205;-62
2022/04/23 10:51:05;;;;;;;25.75;19.88;;;;;;;;;;4993420;28;20228;-62
2022/04/23 10:53:50;;;;;;;25.27;20.33;;;;;;;;;;4992146;28;20225;-62
2022/04/23 10:56:16;;;;;;;27.70;21.10;;;;;;;;;;4991888;28;20239;-62
2022/04/23 10:58:42;;;;;;;22.40;19.30;;;;;;;;;;4993551;28;20216;-62
2022/04/23 11:01:20;;;;;;;27.10;20.83;;;;;;;;;;4992203;28;20210;-62
2022/04/23 11:03:49;;;;;;;23.92;19.45;;;;;;;;;;4991312;28;20658;-61
2022/04/23 11:12:15;;;;;;;25.10;20.38;;;;;;;;;;4993173;28;20271;-61
2022/04/23 11:14:44;;;;;;;24.65;19.65;;;;;;;;;;4992171;28;20275;-61
2022/04/23 11:17:11;;;;;;;25.50;19.98;;;;;;;;;;4992636;28;20217;-61
2022/04/23 11:19:36;;;;;;;24.88;20.75;;;;;;;;;;4992744;28;20280;-61
2022/04/23 11:22:01;;;;;;;28.30;22.42;;;;;;;;;;4993092;28;20213;-62
2022/04/23 11:24:27;;;;;;;25.35;20.65;;;;;;;;;;4991377;28;20212;-61
2022/04/23 11:26:55;;;;;;;25.40;20.73;;;;;;;;;;4991870;28;20221;-60
2022/04/23 11:29:21;;;;;;;29.02;21.48;;;;;;;;;;4992671;28;20254;-61
2022/04/23 11:31:50;;;;;;;24.63;20.63;;;;;;;;;;4992757;28;20297;-61
2022/04/23 11:34:16;;;;;;;26.15;20.88;;;;;;;;;;4992618;28;20296;-61
2022/04/23 11:36:42;;;;;;;24.92;19.80;;;;;;;;;;4992949;28;20213;-61
2022/04/23 11:39:09;;;;;;;30.85;20.63;;;;;;;;;;4992061;28;20762;-62
2022/04/23 11:41:36;;;;;;;25.90;19.92;;;;;;;;;;4992176;28;20563;-61
2022/04/23 11:44:11;;;;;;;22.70;19.30;;;;;;;;;;4991614;28;20301;-62
2022/04/23 11:46:40;;;;;;;28.42;19.70;;;;;;;;;;4993112;28;20224;-61
2022/04/23 11:49:05;;;;;;;24.88;19.83;;;;;;;;;;4992762;28;20216;-61
2022/04/23 11:51:30;;;;;;;24.05;19.98;;;;;;;;;;4991165;28;20213;-61
2022/04/23 11:53:58;;;;;;;23.23;18.75;;;;;;;;;;4993023;28;20236;-61
2022/04/23 11:56:24;;;;;;;23.05;19.45;;;;;;;;;;4991227;28;20240;-62
2022/04/23 11:58:51;;;;;;;23.88;19.60;;;;;;;;;;4990652;28;20213;-61
2022/04/23 12:01:16;;;;;;;26.00;19.95;;;;;;;;;;4991364;28;20303;-61
2022/04/23 12:03:47;;;;;;;22.48;18.85;;;;;;;;;;4992989;28;20351;-60
2022/04/23 12:06:12;;;;;;;21.98;19.23;;;;;;;;;;4991687;28;20287;-61
2022/04/23 12:08:37;;;;;;;23.25;19.42;;;;;;;;;;4992741;28;20240;-61
2022/04/23 12:11:03;;;;;;;22.83;18.30;;;;;;;;;;4992696;28;20584;-61
2022/04/23 12:13:28;;;;;;;22.27;18.85;;;;;;;;;;4991927;28;20229;-61
2022/04/23 12:15:53;;;;;;;22.38;17.92;;;;;;;;;;4992519;28;20208;-61
2022/04/23 12:18:19;;;;;;;23.52;17.90;;;;;;;;;;4991203;28;20279;-61
2022/04/23 12:20:44;;;;;;;22.38;18.30;;;;;;;;;;4991835;28;20212;-61
2022/04/23 12:23:10;;;;;;;22.90;18.08;;;;;;;;;;4992475;28;20212;-61
2022/04/23 12:25:36;;;;;;;21.10;16.55;;;;;;;;;;4992921;28;20216;-61
2022/04/23 12:28:02;;;;;;;19.77;16.85;;;;;;;;;;4990534;28;20209;-61
2022/04/23 12:41:39;;;;;;;22.85;15.45;;;;;;;;;;4979708;28;20299;-61
2022/04/23 12:44:17;;;;;;;19.40;14.20;;;;;;;;;;4970734;28;20210;-62
2022/04/23 12:46:53;;;;;;;18.92;14.95;;;;;;;;;;4989788;28;20209;-60
2022/04/23 12:49:18;;;;;;;20.33;15.38;;;;;;;;;;4986016;28;20212;-61
2022/04/23 12:51:52;;;;;;;19.98;15.40;;;;;;;;;;4970467;28;20217;-61
2022/04/23 12:54:17;;;;;;;18.88;15.68;;;;;;;;;;4987857;28;20315;-60
2022/04/23 12:56:43;;;;;;;18.00;15.32;;;;;;;;;;4982923;28;20638;-61
2022/04/23 12:59:09;;;;;;;18.65;15.75;;;;;;;;;;4963120;28;20205;-63
2022/04/23 13:01:34;;;;;;;17.98;15.52;;;;;;;;;;4962657;28;20209;-63
2022/04/23 13:04:02;;;;;;;17.73;14.90;;;;;;;;;;4969421;28;20202;-63
2022/04/23 13:09:11;;;;;;;19.40;13.52;;;;;;;;;;4969616;28;20300;-62
2022/04/23 13:11:36;;;;;;;16.67;13.80;;;;;;;;;;4989512;28;20307;-63
2022/04/23 13:14:03;;;;;;;17.95;15.15;;;;;;;;;;4989185;28;20229;-63
2022/04/23 13:16:29;;;;;;;17.10;13.77;;;;;;;;;;4988061;28;20220;-63
2022/04/23 13:18:55;;;;;;;16.05;13.60;;;;;;;;;;4984184;28;20213;-63
2022/04/23 13:21:20;;;;;;;17.80;13.57;;;;;;;;;;4981118;28;20306;-63
2022/04/23 13:23:46;;;;;;;17.95;14.50;;;;;;;;;;4981324;28;20402;-63
2022/04/23 13:26:11;;;;;;;16.48;12.68;;;;;;;;;;4985107;28;20218;-63
2022/04/23 13:28:36;;;;;;;16.42;12.77;;;;;;;;;;4989408;28;20248;-62
2022/04/23 13:31:01;;;;;;;15.25;11.85;;;;;;;;;;4987719;28;20217;-62
2022/04/23 13:33:27;;;;;;;14.68;12.30;;;;;;;;;;4989289;28;20221;-62
2022/04/23 13:35:52;;;;;;;14.63;11.82;;;;;;;;;;4989013;28;20772;-63
2022/04/23 13:38:17;;;;;;;15.32;11.90;;;;;;;;;;4987893;28;20220;-63
2022/04/23 13:40:43;;;;;;;17.05;11.70;;;;;;;;;;4982529;28;20301;-63
2022/04/23 13:43:09;;;;;;;16.25;12.38;;;;;;;;;;4962305;28;20313;-62
2022/04/23 13:45:34;;;;;;;15.15;12.15;;;;;;;;;;4961876;28;20313;-63
2022/04/23 13:48:00;;;;;;;16.23;12.65;;;;;;;;;;4964941;28;20213;-62
2022/04/23 13:50:25;;;;;;;16.05;12.38;;;;;;;;;;4983053;28;20217;-63
2022/04/23 13:52:50;;;;;;;14.70;11.43;;;;;;;;;;4980089;28;20572;-63
2022/04/23 13:55:16;;;;;;;13.98;11.57;;;;;;;;;;4969247;28;20238;-63
2022/04/23 13:57:41;;;;;;;14.73;12.43;;;;;;;;;;4980658;28;20265;-62
2022/04/23 14:00:06;;;;;;;14.32;10.98;;;;;;;;;;4969405;28;20217;-63
2022/04/23 14:10:43;;;;;;;13.95;11.20;;;;;;;;;;4983266;28;20323;-63
2022/04/23 14:13:08;;;;;;;18.30;12.50;;;;;;;;;;4987138;28;20770;-62
2022/04/23 14:15:34;;;;;;;14.50;13.00;;;;;;;;;;4984588;28;20271;-63
2022/04/23 14:18:00;;;;;;;13.82;12.32;;;;;;;;;;4987993;28;20571;-62
2022/04/23 14:20:26;;;;;;;17.67;12.98;;;;;;;;;;4968074;28;20221;-62
2022/04/23 14:22:51;;;;;;;18.85;13.02;;;;;;;;;;4987719;28;20213;-62
2022/04/23 14:25:18;;;;;;;15.52;12.48;;;;;;;;;;4986641;28;20902;-62
2022/04/23 14:27:45;;;;;;;14.65;12.52;;;;;;;;;;4980320;28;20928;-62
2022/04/23 14:30:10;;;;;;;16.88;11.82;;;;;;;;;;4976088;28;20588;-63
2022/04/23 14:32:36;;;;;;;15.15;13.18;;;;;;;;;;4956077;28;20217;-62
2022/04/23 14:35:02;;;;;;;13.57;11.70;;;;;;;;;;4967757;28;20229;-63
2022/04/23 14:37:27;;;;;;;15.75;12.20;;;;;;;;;;4969190;28;20222;-63
2022/04/23 14:39:53;;;;;;;15.27;12.43;;;;;;;;;;4968239;28;20325;-62
2022/04/23 14:42:20;;;;;;;14.68;11.43;;;;;;;;;;4984321;28;20211;-62
2022/04/23 14:44:45;;;;;;;14.45;11.45;;;;;;;;;;4987629;28;20252;-62
2022/04/23 14:47:11;;;;;;;15.02;11.00;;;;;;;;;;4985866;28;20400;-62
2022/04/23 14:49:36;;;;;;;12.95;11.25;;;;;;;;;;4981645;28;20220;-62
2022/04/23 14:54:45;;;;;;;14.40;11.80;;;;;;;;;;4978781;28;20311;-62
2022/04/23 14:57:12;;;;;;;13.80;11.48;;;;;;;;;;4982451;28;20685;-62